sensor_id;sensor_type;location;lat;lon;timestamp;temperature;humidity
6740;DHT22;3407;49.882;10.920;2023-12-20T00:01:36;5.10;44.10
6740;DHT22;3407;49.882;10.920;2023-12-20T00:06:31;5.10;43.50
6740;DHT22;3407;49.882;10.920;2023-12-20T00:11:27;5.10;46.70
6740;DHT22;3407;49.882;10.920;2023-12-20T00:16:22;5.10;47.50
6740;DHT22;3407;49.882;10.920;2023-12-20T00:21:17;5.10;48.40
6740;DHT22;3407;49.882;10.920;2023-12-20T00:26:13;5.10;48.50
6740;DHT22;3407;49.882;10.920;2023-12-20T00:31:09;5.10;49.20
6740;DHT22;3407;49.882;10.920;2023-12-20T00:36:04;5.10;51.30
6740;DHT22;3407;49.882;10.920;2023-12-20T00:41:00;5.10;51.40
6740;DHT22;3407;49.882;10.920;2023-12-20T00:45:56;5.10;52.90
6740;DHT22;3407;49.882;10.920;2023-12-20T00:50:52;5.10;53.00
6740;DHT22;3407;49.882;10.920;2023-12-20T00:55:48;5.10;54.50
6740;DHT22;3407;49.882;10.920;2023-12-20T01:00:43;5.10;56.20
6740;DHT22;3407;49.882;10.920;2023-12-20T01:05:39;5.10;55.30
6740;DHT22;3407;49.882;10.920;2023-12-20T01:10:35;5.10;55.70
6740;DHT22;3407;49.882;10.920;2023-12-20T01:15:30;5.10;57.10
6740;DHT22;3407;49.882;10.920;2023-12-20T01:20:26;5.00;57.20
6740;DHT22;3407;49.882;10.920;2023-12-20T01:25:21;5.10;59.20
6740;DHT22;3407;49.882;10.920;2023-12-20T01:30:17;5.10;59.20
6740;DHT22;3407;49.882;10.920;2023-12-20T01:35:12;5.10;59.40
6740;DHT22;3407;49.882;10.920;2023-12-20T01:40:09;5.10;60.00
6740;DHT22;3407;49.882;10.920;2023-12-20T01:45:05;5.10;59.40
6740;DHT22;3407;49.882;10.920;2023-12-20T01:50:01;5.10;59.60
6740;DHT22;3407;49.882;10.920;2023-12-20T01:54:59;5.00;59.60
6740;DHT22;3407;49.882;10.920;2023-12-20T01:59:58;5.10;59.80
6740;DHT22;3407;49.882;10.920;2023-12-20T02:04:53;5.00;59.80
6740;DHT22;3407;49.882;10.920;2023-12-20T02:09:49;5.00;59.90
6740;DHT22;3407;49.882;10.920;2023-12-20T02:14:45;5.00;59.90
6740;DHT22;3407;49.882;10.920;2023-12-20T02:19:41;5.00;59.80
6740;DHT22;3407;49.882;10.920;2023-12-20T02:24:36;5.00;61.10
6740;DHT22;3407;49.882;10.920;2023-12-20T02:29:35;4.90;60.80
6740;DHT22;3407;49.882;10.920;2023-12-20T02:34:30;5.00;61.20
6740;DHT22;3407;49.882;10.920;2023-12-20T02:39:26;5.00;61.00
6740;DHT22;3407;49.882;10.920;2023-12-20T02:44:22;4.90;61.60
6740;DHT22;3407;49.882;10.920;2023-12-20T02:49:17;4.90;61.40
6740;DHT22;3407;49.882;10.920;2023-12-20T02:54:13;4.90;62.10
6740;DHT22;3407;49.882;10.920;2023-12-20T02:59:09;4.90;62.20
6740;DHT22;3407;49.882;10.920;2023-12-20T03:04:05;4.90;62.00
6740;DHT22;3407;49.882;10.920;2023-12-20T03:09:00;4.90;63.00
6740;DHT22;3407;49.882;10.920;2023-12-20T03:13:56;4.90;64.20
6740;DHT22;3407;49.882;10.920;2023-12-20T03:18:52;4.90;64.30
6740;DHT22;3407;49.882;10.920;2023-12-20T03:23:48;4.80;62.80
6740;DHT22;3407;49.882;10.920;2023-12-20T03:28:43;4.80;62.40
6740;DHT22;3407;49.882;10.920;2023-12-20T03:33:39;4.80;63.30
6740;DHT22;3407;49.882;10.920;2023-12-20T03:38:34;4.80;63.80
6740;DHT22;3407;49.882;10.920;2023-12-20T03:43:30;4.70;60.60
6740;DHT22;3407;49.882;10.920;2023-12-20T03:48:25;4.70;60.80
6740;DHT22;3407;49.882;10.920;2023-12-20T03:53:21;4.70;63.00
6740;DHT22;3407;49.882;10.920;2023-12-20T03:58:16;4.60;63.10
6740;DHT22;3407;49.882;10.920;2023-12-20T04:03:12;4.60;61.50
6740;DHT22;3407;49.882;10.920;2023-12-20T04:08:11;4.60;62.50
6740;DHT22;3407;49.882;10.920;2023-12-20T04:13:06;4.50;62.70
6740;DHT22;3407;49.882;10.920;2023-12-20T04:18:02;4.50;62.80
6740;DHT22;3407;49.882;10.920;2023-12-20T04:22:57;4.50;62.50
6740;DHT22;3407;49.882;10.920;2023-12-20T04:27:53;4.50;63.50
6740;DHT22;3407;49.882;10.920;2023-12-20T04:32:48;4.50;61.70
6740;DHT22;3407;49.882;10.920;2023-12-20T04:37:44;4.50;60.90
6740;DHT22;3407;49.882;10.920;2023-12-20T04:42:40;4.40;59.50
6740;DHT22;3407;49.882;10.920;2023-12-20T04:47:35;4.40;60.70
6740;DHT22;3407;49.882;10.920;2023-12-20T04:52:31;4.40;60.50
6740;DHT22;3407;49.882;10.920;2023-12-20T04:57:26;4.40;59.60
6740;DHT22;3407;49.882;10.920;2023-12-20T05:02:22;4.40;60.00
6740;DHT22;3407;49.882;10.920;2023-12-20T05:07:18;4.40;60.60
6740;DHT22;3407;49.882;10.920;2023-12-20T05:12:14;4.40;61.00
6740;DHT22;3407;49.882;10.920;2023-12-20T05:17:09;4.50;62.10
6740;DHT22;3407;49.882;10.920;2023-12-20T05:22:05;4.50;62.10
6740;DHT22;3407;49.882;10.920;2023-12-20T05:27:00;4.50;61.70
6740;DHT22;3407;49.882;10.920;2023-12-20T05:31:58;4.50;63.60
6740;DHT22;3407;49.882;10.920;2023-12-20T05:36:54;4.60;64.10
6740;DHT22;3407;49.882;10.920;2023-12-20T05:41:49;4.60;63.30
6740;DHT22;3407;49.882;10.920;2023-12-20T05:46:45;4.60;63.20
6740;DHT22;3407;49.882;10.920;2023-12-20T05:51:40;4.50;61.50
6740;DHT22;3407;49.882;10.920;2023-12-20T05:56:36;4.60;62.70
6740;DHT22;3407;49.882;10.920;2023-12-20T06:01:31;4.60;62.60
6740;DHT22;3407;49.882;10.920;2023-12-20T06:06:28;4.60;61.60
6740;DHT22;3407;49.882;10.920;2023-12-20T06:11:24;4.60;61.40
6740;DHT22;3407;49.882;10.920;2023-12-20T06:16:19;4.60;61.00
6740;DHT22;3407;49.882;10.920;2023-12-20T06:21:15;4.70;62.70
6740;DHT22;3407;49.882;10.920;2023-12-20T06:26:11;4.70;62.70
6740;DHT22;3407;49.882;10.920;2023-12-20T06:31:06;4.70;63.40
6740;DHT22;3407;49.882;10.920;2023-12-20T06:36:02;4.70;62.70
6740;DHT22;3407;49.882;10.920;2023-12-20T06:40:57;4.70;63.60
6740;DHT22;3407;49.882;10.920;2023-12-20T06:45:53;4.70;62.60
6740;DHT22;3407;49.882;10.920;2023-12-20T06:50:49;4.70;61.50
6740;DHT22;3407;49.882;10.920;2023-12-20T06:55:44;4.60;60.90
6740;DHT22;3407;49.882;10.920;2023-12-20T07:00:40;4.60;59.90
6740;DHT22;3407;49.882;10.920;2023-12-20T07:05:35;4.50;57.60
6740;DHT22;3407;49.882;10.920;2023-12-20T07:10:31;4.40;57.00
6740;DHT22;3407;49.882;10.920;2023-12-20T07:15:26;4.40;58.90
6740;DHT22;3407;49.882;10.920;2023-12-20T07:20:22;4.40;59.20
6740;DHT22;3407;49.882;10.920;2023-12-20T07:25:17;4.40;60.80
6740;DHT22;3407;49.882;10.920;2023-12-20T07:30:13;4.40;59.20
6740;DHT22;3407;49.882;10.920;2023-12-20T07:35:09;4.30;60.00
6740;DHT22;3407;49.882;10.920;2023-12-20T07:40:05;4.40;63.30
6740;DHT22;3407;49.882;10.920;2023-12-20T07:45:01;4.40;63.50
6740;DHT22;3407;49.882;10.920;2023-12-20T07:49:56;4.50;63.90
6740;DHT22;3407;49.882;10.920;2023-12-20T07:54:52;4.50;63.90
6740;DHT22;3407;49.882;10.920;2023-12-20T07:59:47;4.60;62.90
6740;DHT22;3407;49.882;10.920;2023-12-20T08:04:43;4.70;62.40
6740;DHT22;3407;49.882;10.920;2023-12-20T08:09:38;4.70;63.00
6740;DHT22;3407;49.882;10.920;2023-12-20T08:14:34;4.80;60.80
6740;DHT22;3407;49.882;10.920;2023-12-20T08:19:29;4.70;59.30
6740;DHT22;3407;49.882;10.920;2023-12-20T08:24:25;4.60;56.50
6740;DHT22;3407;49.882;10.920;2023-12-20T08:29:20;4.50;55.10
6740;DHT22;3407;49.882;10.920;2023-12-20T08:34:16;4.50;54.90
6740;DHT22;3407;49.882;10.920;2023-12-20T08:39:11;4.60;56.10
6740;DHT22;3407;49.882;10.920;2023-12-20T08:44:08;4.60;56.50
6740;DHT22;3407;49.882;10.920;2023-12-20T08:49:04;4.60;55.40
6740;DHT22;3407;49.882;10.920;2023-12-20T08:54:00;4.70;52.90
6740;DHT22;3407;49.882;10.920;2023-12-20T08:58:56;4.70;49.60
6740;DHT22;3407;49.882;10.920;2023-12-20T09:03:51;4.80;51.40
6740;DHT22;3407;49.882;10.920;2023-12-20T09:08:47;4.90;49.20
6740;DHT22;3407;49.882;10.920;2023-12-20T09:13:43;5.20;57.80
6740;DHT22;3407;49.882;10.920;2023-12-20T09:18:39;5.70;58.00
6740;DHT22;3407;49.882;10.920;2023-12-20T09:23:35;5.90;28.70
6740;DHT22;3407;49.882;10.920;2023-12-20T09:28:32;5.80;10.00
6740;DHT22;3407;49.882;10.920;2023-12-20T09:33:32;5.70;1.00
6740;DHT22;3407;49.882;10.920;2023-12-20T09:38:28;5.70;1.00
6740;DHT22;3407;49.882;10.920;2023-12-20T09:43:24;5.70;1.00
6740;DHT22;3407;49.882;10.920;2023-12-20T09:48:21;5.80;1.00
6740;DHT22;3407;49.882;10.920;2023-12-20T09:53:17;5.80;1.00
6740;DHT22;3407;49.882;10.920;2023-12-20T09:58:14;5.90;1.00
6740;DHT22;3407;49.882;10.920;2023-12-20T10:03:11;5.90;1.00
6740;DHT22;3407;49.882;10.920;2023-12-20T10:08:08;6.00;1.00
6740;DHT22;3407;49.882;10.920;2023-12-20T10:13:09;5.90;1.00
6740;DHT22;3407;49.882;10.920;2023-12-20T10:18:06;6.10;1.00
6740;DHT22;3407;49.882;10.920;2023-12-20T10:23:02;6.50;1.00
6740;DHT22;3407;49.882;10.920;2023-12-20T10:28:16;7.00;99.90
6740;DHT22;3407;49.882;10.920;2023-12-20T10:33:26;7.80;99.90
6740;DHT22;3407;49.882;10.920;2023-12-20T10:38:22;7.70;99.90
6740;DHT22;3407;49.882;10.920;2023-12-20T10:43:19;7.60;1.00
6740;DHT22;3407;49.882;10.920;2023-12-20T10:48:16;7.50;1.00
6740;DHT22;3407;49.882;10.920;2023-12-20T10:53:12;7.40;1.00
6740;DHT22;3407;49.882;10.920;2023-12-20T10:58:08;7.50;52.50
6740;DHT22;3407;49.882;10.920;2023-12-20T11:03:04;7.50;1.00
6740;DHT22;3407;49.882;10.920;2023-12-20T11:08:10;7.50;1.00
6740;DHT22;3407;49.882;10.920;2023-12-20T11:13:23;7.60;99.90
6740;DHT22;3407;49.882;10.920;2023-12-20T11:18:29;7.50;1.00
6740;DHT22;3407;49.882;10.920;2023-12-20T11:23:25;7.50;99.90
6740;DHT22;3407;49.882;10.920;2023-12-20T11:28:21;7.50;1.00
6740;DHT22;3407;49.882;10.920;2023-12-20T11:33:24;7.50;1.00
6740;DHT22;3407;49.882;10.920;2023-12-20T11:38:20;7.40;1.00
6740;DHT22;3407;49.882;10.920;2023-12-20T11:43:35;7.50;1.00
6740;DHT22;3407;49.882;10.920;2023-12-20T11:48:32;7.90;1.00
6740;DHT22;3407;49.882;10.920;2023-12-20T11:53:27;7.70;99.90
6740;DHT22;3407;49.882;10.920;2023-12-20T11:58:23;7.50;99.90
6740;DHT22;3407;49.882;10.920;2023-12-20T12:03:19;7.70;28.70
6740;DHT22;3407;49.882;10.920;2023-12-20T12:08:14;7.50;1.00
6740;DHT22;3407;49.882;10.920;2023-12-20T12:13:11;7.20;99.90
6740;DHT22;3407;49.882;10.920;2023-12-20T12:18:07;7.10;99.90
6740;DHT22;3407;49.882;10.920;2023-12-20T12:23:04;7.00;99.90
6740;DHT22;3407;49.882;10.920;2023-12-20T12:28:00;6.90;7.90
6740;DHT22;3407;49.882;10.920;2023-12-20T12:32:57;6.80;1.00
6740;DHT22;3407;49.882;10.920;2023-12-20T12:37:53;6.80;1.00
6740;DHT22;3407;49.882;10.920;2023-12-20T12:42:48;6.60;99.90
6740;DHT22;3407;49.882;10.920;2023-12-20T12:47:45;6.40;1.00
6740;DHT22;3407;49.882;10.920;2023-12-20T12:52:40;6.20;99.90
6740;DHT22;3407;49.882;10.920;2023-12-20T12:57:36;6.20;99.90
6740;DHT22;3407;49.882;10.920;2023-12-20T13:02:31;6.20;1.00
6740;DHT22;3407;49.882;10.920;2023-12-20T13:07:27;6.30;1.00
6740;DHT22;3407;49.882;10.920;2023-12-20T13:12:23;6.30;99.90
6740;DHT22;3407;49.882;10.920;2023-12-20T13:17:18;6.30;99.90
6740;DHT22;3407;49.882;10.920;2023-12-20T13:22:14;6.30;1.00
6740;DHT22;3407;49.882;10.920;2023-12-20T13:27:10;6.30;99.90
6740;DHT22;3407;49.882;10.920;2023-12-20T13:32:06;6.20;99.90
6740;DHT22;3407;49.882;10.920;2023-12-20T13:37:01;6.30;91.80
6740;DHT22;3407;49.882;10.920;2023-12-20T13:41:57;6.40;1.00
6740;DHT22;3407;49.882;10.920;2023-12-20T13:46:53;6.40;1.00
6740;DHT22;3407;49.882;10.920;2023-12-20T13:51:49;6.50;1.00
6740;DHT22;3407;49.882;10.920;2023-12-20T13:56:44;6.50;1.00
6740;DHT22;3407;49.882;10.920;2023-12-20T14:01:40;6.40;1.00
6740;DHT22;3407;49.882;10.920;2023-12-20T14:06:35;6.40;1.00
6740;DHT22;3407;49.882;10.920;2023-12-20T14:11:31;6.40;1.00
6740;DHT22;3407;49.882;10.920;2023-12-20T14:16:26;6.40;1.00
6740;DHT22;3407;49.882;10.920;2023-12-20T14:21:22;6.50;7.00
6740;DHT22;3407;49.882;10.920;2023-12-20T14:26:19;6.40;99.90
6740;DHT22;3407;49.882;10.920;2023-12-20T14:31:14;6.40;1.00
6740;DHT22;3407;49.882;10.920;2023-12-20T14:36:10;6.40;1.00
6740;DHT22;3407;49.882;10.920;2023-12-20T14:41:06;6.40;99.90
6740;DHT22;3407;49.882;10.920;2023-12-20T14:46:04;6.30;99.90
6740;DHT22;3407;49.882;10.920;2023-12-20T14:51:00;6.20;1.00
6740;DHT22;3407;49.882;10.920;2023-12-20T14:55:56;6.10;1.00
6740;DHT22;3407;49.882;10.920;2023-12-20T15:00:51;6.10;39.90
6740;DHT22;3407;49.882;10.920;2023-12-20T15:05:47;6.10;99.90
6740;DHT22;3407;49.882;10.920;2023-12-20T15:10:43;6.10;1.00
6740;DHT22;3407;49.882;10.920;2023-12-20T15:15:38;6.00;99.90
6740;DHT22;3407;49.882;10.920;2023-12-20T15:20:34;6.00;99.90
6740;DHT22;3407;49.882;10.920;2023-12-20T15:25:32;5.90;99.90
6740;DHT22;3407;49.882;10.920;2023-12-20T15:30:28;5.90;1.00
6740;DHT22;3407;49.882;10.920;2023-12-20T15:35:24;5.90;1.00
6740;DHT22;3407;49.882;10.920;2023-12-20T15:40:20;5.80;99.90
6740;DHT22;3407;49.882;10.920;2023-12-20T15:45:16;5.80;1.00
6740;DHT22;3407;49.882;10.920;2023-12-20T15:50:11;5.80;99.90
6740;DHT22;3407;49.882;10.920;2023-12-20T15:55:07;5.70;1.00
6740;DHT22;3407;49.882;10.920;2023-12-20T16:00:03;5.70;1.00
6740;DHT22;3407;49.882;10.920;2023-12-20T16:05:00;5.70;99.90
6740;DHT22;3407;49.882;10.920;2023-12-20T16:09:55;5.70;1.00
6740;DHT22;3407;49.882;10.920;2023-12-20T16:14:51;5.70;99.90
6740;DHT22;3407;49.882;10.920;2023-12-20T16:19:47;5.70;1.00
6740;DHT22;3407;49.882;10.920;2023-12-20T16:24:42;5.70;1.00
6740;DHT22;3407;49.882;10.920;2023-12-20T16:29:38;5.70;99.90
6740;DHT22;3407;49.882;10.920;2023-12-20T16:34:33;5.60;99.90
6740;DHT22;3407;49.882;10.920;2023-12-20T16:39:29;5.60;1.00
6740;DHT22;3407;49.882;10.920;2023-12-20T16:44:25;5.60;99.90
6740;DHT22;3407;49.882;10.920;2023-12-20T16:49:20;5.60;99.90
6740;DHT22;3407;49.882;10.920;2023-12-20T16:54:16;5.60;99.90
6740;DHT22;3407;49.882;10.920;2023-12-20T16:59:11;5.50;1.00
6740;DHT22;3407;49.882;10.920;2023-12-20T17:04:07;5.50;1.00
6740;DHT22;3407;49.882;10.920;2023-12-20T17:09:03;5.50;99.90
6740;DHT22;3407;49.882;10.920;2023-12-20T17:13:58;5.60;99.90
6740;DHT22;3407;49.882;10.920;2023-12-20T17:18:54;5.50;99.90
6740;DHT22;3407;49.882;10.920;2023-12-20T17:23:49;5.60;1.00
6740;DHT22;3407;49.882;10.920;2023-12-20T17:28:45;5.60;1.00
6740;DHT22;3407;49.882;10.920;2023-12-20T17:33:40;5.60;1.00
6740;DHT22;3407;49.882;10.920;2023-12-20T17:38:36;5.60;99.90
6740;DHT22;3407;49.882;10.920;2023-12-20T17:43:34;5.60;99.90
6740;DHT22;3407;49.882;10.920;2023-12-20T17:48:30;5.60;99.90
6740;DHT22;3407;49.882;10.920;2023-12-20T17:53:25;5.60;99.90
6740;DHT22;3407;49.882;10.920;2023-12-20T17:58:21;5.60;99.90
6740;DHT22;3407;49.882;10.920;2023-12-20T18:03:16;5.60;99.90
6740;DHT22;3407;49.882;10.920;2023-12-20T18:08:12;5.50;99.90
6740;DHT22;3407;49.882;10.920;2023-12-20T18:13:07;5.40;99.90
6740;DHT22;3407;49.882;10.920;2023-12-20T18:18:03;5.50;99.90
6740;DHT22;3407;49.882;10.920;2023-12-20T18:22:59;5.50;99.90
6740;DHT22;3407;49.882;10.920;2023-12-20T18:27:55;5.50;1.00
6740;DHT22;3407;49.882;10.920;2023-12-20T18:32:50;5.40;1.00
6740;DHT22;3407;49.882;10.920;2023-12-20T18:37:46;5.40;1.00
6740;DHT22;3407;49.882;10.920;2023-12-20T18:42:41;5.40;1.00
6740;DHT22;3407;49.882;10.920;2023-12-20T18:47:37;5.40;1.00
6740;DHT22;3407;49.882;10.920;2023-12-20T18:52:33;5.30;1.00
6740;DHT22;3407;49.882;10.920;2023-12-20T18:57:28;5.30;1.00
6740;DHT22;3407;49.882;10.920;2023-12-20T19:02:24;5.20;1.00
6740;DHT22;3407;49.882;10.920;2023-12-20T19:07:20;5.20;1.00
6740;DHT22;3407;49.882;10.920;2023-12-20T19:12:15;5.20;1.00
6740;DHT22;3407;49.882;10.920;2023-12-20T19:17:12;5.20;1.00
6740;DHT22;3407;49.882;10.920;2023-12-20T19:22:07;5.10;1.00
6740;DHT22;3407;49.882;10.920;2023-12-20T19:27:03;5.10;1.00
6740;DHT22;3407;49.882;10.920;2023-12-20T19:31:58;5.20;1.00
6740;DHT22;3407;49.882;10.920;2023-12-20T19:36:54;5.20;1.00
6740;DHT22;3407;49.882;10.920;2023-12-20T19:41:50;5.20;1.00
6740;DHT22;3407;49.882;10.920;2023-12-20T19:46:45;5.20;1.00
6740;DHT22;3407;49.882;10.920;2023-12-20T19:51:43;5.10;1.00
6740;DHT22;3407;49.882;10.920;2023-12-20T19:56:39;5.10;1.00
6740;DHT22;3407;49.882;10.920;2023-12-20T20:01:34;5.20;1.00
6740;DHT22;3407;49.882;10.920;2023-12-20T20:06:34;5.10;1.00
6740;DHT22;3407;49.882;10.920;2023-12-20T20:11:30;5.20;1.00
6740;DHT22;3407;49.882;10.920;2023-12-20T20:16:26;5.20;1.00
6740;DHT22;3407;49.882;10.920;2023-12-20T20:21:21;5.20;1.00
6740;DHT22;3407;49.882;10.920;2023-12-20T20:26:17;5.20;1.00
6740;DHT22;3407;49.882;10.920;2023-12-20T20:31:12;5.30;1.00
6740;DHT22;3407;49.882;10.920;2023-12-20T20:36:08;5.30;1.00
6740;DHT22;3407;49.882;10.920;2023-12-20T20:41:05;5.30;1.00
6740;DHT22;3407;49.882;10.920;2023-12-20T20:46:00;5.30;1.00
6740;DHT22;3407;49.882;10.920;2023-12-20T20:50:57;5.30;1.00
6740;DHT22;3407;49.882;10.920;2023-12-20T20:55:54;5.20;1.00
6740;DHT22;3407;49.882;10.920;2023-12-20T21:00:49;5.20;1.00
6740;DHT22;3407;49.882;10.920;2023-12-20T21:05:46;5.20;1.00
6740;DHT22;3407;49.882;10.920;2023-12-20T21:10:41;5.20;1.00
6740;DHT22;3407;49.882;10.920;2023-12-20T21:15:39;5.10;1.00
6740;DHT22;3407;49.882;10.920;2023-12-20T21:20:34;5.10;7.40
6740;DHT22;3407;49.882;10.920;2023-12-20T21:25:30;5.10;11.00
6740;DHT22;3407;49.882;10.920;2023-12-20T21:30:27;5.10;17.00
6740;DHT22;3407;49.882;10.920;2023-12-20T21:35:22;5.10;18.40
6740;DHT22;3407;49.882;10.920;2023-12-20T21:40:18;5.10;21.50
6740;DHT22;3407;49.882;10.920;2023-12-20T21:45:13;5.10;22.10
6740;DHT22;3407;49.882;10.920;2023-12-20T21:50:10;5.00;17.60
6740;DHT22;3407;49.882;10.920;2023-12-20T21:55:06;5.00;18.30
6740;DHT22;3407;49.882;10.920;2023-12-20T22:00:02;5.10;19.90
6740;DHT22;3407;49.882;10.920;2023-12-20T22:04:58;5.10;13.00
6740;DHT22;3407;49.882;10.920;2023-12-20T22:09:54;5.10;15.30
6740;DHT22;3407;49.882;10.920;2023-12-20T22:14:50;5.10;17.00
6740;DHT22;3407;49.882;10.920;2023-12-20T22:19:45;5.10;19.20
6740;DHT22;3407;49.882;10.920;2023-12-20T22:24:41;5.10;17.60
6740;DHT22;3407;49.882;10.920;2023-12-20T22:29:37;5.10;19.10
6740;DHT22;3407;49.882;10.920;2023-12-20T22:34:33;5.10;19.20
6740;DHT22;3407;49.882;10.920;2023-12-20T22:39:29;5.10;21.10
6740;DHT22;3407;49.882;10.920;2023-12-20T22:44:24;5.10;17.30
6740;DHT22;3407;49.882;10.920;2023-12-20T22:49:20;5.10;17.90
6740;DHT22;3407;49.882;10.920;2023-12-20T22:54:15;5.10;14.70
6740;DHT22;3407;49.882;10.920;2023-12-20T22:59:11;5.20;12.40
6740;DHT22;3407;49.882;10.920;2023-12-20T23:04:08;5.20;11.10
6740;DHT22;3407;49.882;10.920;2023-12-20T23:09:04;5.30;12.70
6740;DHT22;3407;49.882;10.920;2023-12-20T23:13:59;5.30;1.00
6740;DHT22;3407;49.882;10.920;2023-12-20T23:18:55;5.30;1.00
6740;DHT22;3407;49.882;10.920;2023-12-20T23:23:51;5.30;1.00
6740;DHT22;3407;49.882;10.920;2023-12-20T23:28:46;5.40;1.00
6740;DHT22;3407;49.882;10.920;2023-12-20T23:33:42;5.40;1.00
6740;DHT22;3407;49.882;10.920;2023-12-20T23:38:40;5.40;1.00
6740;DHT22;3407;49.882;10.920;2023-12-20T23:43:36;5.40;1.00
6740;DHT22;3407;49.882;10.920;2023-12-20T23:48:31;5.40;1.00
6740;DHT22;3407;49.882;10.920;2023-12-20T23:53:29;5.40;1.00
6740;DHT22;3407;49.882;10.920;2023-12-20T23:58:24;5.40;1.00
